Time;durP1;ratioP1;P1;durP2;ratioP2;P2;SDS_P1;SDS_P2;PMS_P1;PMS_P2;Temp;Humidity;BMP_temperature;BMP_pressure;BME280_temperature;BME280_humidity;BME280_pressure;Samples;Min_cycle;Max_cycle;Signal;HPM_P1;HPM_P2
2022/07/03 00:00:07;;;;;;;6.40;1.70;;;;;;;16.04;98.49;156550.22;4994784;28;20111;-74
2022/07/03 00:02:37;;;;;;;3.50;1.70;;;;;;;16.08;97.40;156561.78;4980612;28;20045;-75
2022/07/03 00:05:03;;;;;;;2.17;1.70;;;;;;;16.10;96.50;156566.94;4987445;28;20034;-76
2022/07/03 00:07:28;;;;;;;3.47;1.60;;;;;;;16.17;97.28;156582.41;4973797;28;20065;-76
2022/07/03 00:09:54;;;;;;;3.47;1.60;;;;;;;16.37;95.42;156632.59;4977867;28;20042;-76
2022/07/03 00:12:19;;;;;;;3.70;1.83;;;;;;;16.51;94.59;156668.66;4987036;28;20042;-76
2022/07/03 00:14:45;;;;;;;2.63;1.42;;;;;;;16.59;93.75;156689.25;4980419;28;20694;-76
2022/07/03 00:17:11;;;;;;;3.10;1.70;;;;;;;16.59;94.44;156689.25;4983230;28;20057;-75
2022/07/03 00:19:37;;;;;;;1.58;1.40;;;;;;;16.59;93.79;156687.97;4998218;28;20026;-76
2022/07/03 00:22:04;;;;;;;2.38;1.30;;;;;;;16.61;92.50;156694.41;4983163;28;20052;-76
2022/07/03 00:24:42;;;;;;;1.75;1.55;;;;;;;16.65;94.02;156703.41;4960242;28;20411;-76
2022/07/03 00:27:09;;;;;;;3.50;1.42;;;;;;;16.73;91.37;156725.31;5000418;28;20044;-77
2022/07/03 00:29:38;;;;;;;1.48;1.38;;;;;;;16.74;91.47;156727.91;4965355;28;20052;-76
2022/07/03 00:32:05;;;;;;;2.92;1.45;;;;;;;16.85;89.06;156754.97;5002534;28;20133;-78
2022/07/03 00:34:31;;;;;;;1.35;1.20;;;;;;;16.84;91.14;156751.09;4983841;28;20447;-79
2022/07/03 00:36:57;;;;;;;7.10;1.60;;;;;;;16.86;90.34;156756.28;4973521;28;20042;-77
2022/07/03 00:39:23;;;;;;;1.38;1.15;;;;;;;16.86;90.43;156756.28;5002756;28;20060;-77
2022/07/03 00:41:59;;;;;;;2.17;1.20;;;;;;;17.07;87.74;156810.38;4970471;28;20434;-75
2022/07/03 00:44:28;;;;;;;3.13;1.15;;;;;;;17.07;87.16;156809.09;4997530;28;20048;-73
2022/07/03 00:46:55;;;;;;;4.75;1.35;;;;;;;17.29;84.92;156865.75;4979372;28;20042;-74
2022/07/03 00:49:22;;;;;;;4.72;1.00;;;;;;;17.24;87.77;156852.88;4978748;28;20514;-76
2022/07/03 00:51:52;;;;;;;1.65;1.27;;;;;;;17.17;87.16;156833.56;4980996;28;20104;-77
2022/07/03 00:54:21;;;;;;;6.75;1.33;;;;;;;17.18;85.36;156836.09;4991351;28;20034;-75
2022/07/03 00:56:52;;;;;;;4.40;1.20;;;;;;;17.17;85.84;156834.84;4987730;28;20383;-75
2022/07/03 00:59:18;;;;;;;3.15;1.33;;;;;;;17.18;86.16;156836.09;4989306;28;20053;-78
2022/07/03 01:01:45;;;;;;;2.97;1.20;;;;;;;17.25;85.52;156855.47;4978635;28;20046;-76
2022/07/03 01:04:37;;;;;;;2.20;1.35;;;;;;;17.28;84.88;156863.16;4982503;28;20342;-76
2022/07/03 01:07:10;;;;;;;1.70;1.20;;;;;;;17.22;84.93;156847.72;4978445;28;20129;-76
2022/07/03 01:09:50;;;;;;;1.65;1.30;;;;;;;17.20;84.88;156842.56;4973845;28;20048;-77
2022/07/03 01:12:26;;;;;;;4.55;1.17;;;;;;;17.13;85.84;156825.81;4981549;28;20038;-78
2022/07/03 01:15:15;;;;;;;3.28;1.48;;;;;;;17.12;84.89;156821.94;4993492;28;20487;-77
2022/07/03 01:18:05;;;;;;;1.88;1.40;;;;;;;17.15;84.82;156828.41;5003017;28;20168;-78
2022/07/03 01:20:37;;;;;;;3.08;1.30;;;;;;;17.10;84.22;156818.13;4980044;28;20053;-78
2022/07/03 01:23:22;;;;;;;2.15;1.30;;;;;;;17.06;84.33;156807.78;4981515;28;20053;-78
2022/07/03 01:25:50;;;;;;;1.70;1.30;;;;;;;17.10;84.07;156816.78;4984638;28;20077;-76
2022/07/03 01:28:18;;;;;;;2.72;1.42;;;;;;;17.13;84.07;156824.53;4992268;28;20058;-76
2022/07/03 01:30:52;;;;;;;1.52;1.20;;;;;;;17.12;84.54;156821.94;4992163;28;20034;-76
2022/07/03 01:33:24;;;;;;;2.95;1.40;;;;;;;17.13;84.18;156824.53;4976653;28;20041;-76
2022/07/03 01:36:05;;;;;;;2.45;1.30;;;;;;;17.09;84.84;156815.50;4982861;28;20037;-76
2022/07/03 01:38:33;;;;;;;3.83;1.65;;;;;;;17.17;84.51;156834.84;4992802;28;20111;-75
2022/07/03 01:41:01;;;;;;;1.92;1.15;;;;;;;17.11;85.60;156819.38;5002287;28;20061;-75
2022/07/03 01:43:32;;;;;;;3.17;1.40;;;;;;;17.17;84.78;156833.56;4983556;28;20507;-75
2022/07/03 01:46:00;;;;;;;5.57;1.52;;;;;;;17.18;84.14;156836.09;4984938;28;20384;-77
2022/07/03 01:48:27;;;;;;;2.55;1.42;;;;;;;17.21;83.95;156845.13;4983819;28;20093;-76
2022/07/03 01:50:55;;;;;;;2.33;1.40;;;;;;;17.20;84.73;156842.56;5001670;28;20800;-75
2022/07/03 01:53:24;;;;;;;4.40;1.33;;;;;;;17.23;84.11;156849.00;4985636;28;20046;-74
2022/07/03 01:55:52;;;;;;;3.50;1.38;;;;;;;17.17;84.72;156834.84;4993955;28;20045;-76
2022/07/03 01:58:18;;;;;;;2.90;1.38;;;;;;;16.95;88.11;156778.16;4975070;28;20495;-77
2022/07/03 02:00:50;;;;;;;2.00;1.10;;;;;;;16.83;89.65;156748.56;4986848;28;20041;-79
2022/07/03 02:03:27;;;;;;;5.53;1.50;;;;;;;16.87;87.42;156760.13;4968982;28;20042;-76
2022/07/03 02:06:07;;;;;;;2.25;1.38;;;;;;;17.00;86.04;156791.06;4974212;28;20125;-78
2022/07/03 02:08:50;;;;;;;2.47;1.40;;;;;;;16.93;87.19;156775.63;5002864;23;20081;-78
2022/07/03 02:11:21;;;;;;;3.10;1.38;;;;;;;17.09;84.77;156815.50;4970483;28;20117;-79
2022/07/03 02:13:55;;;;;;;3.22;1.45;;;;;;;17.12;85.26;156821.94;4974457;28;20492;-78
2022/07/03 02:16:23;;;;;;;4.00;1.23;;;;;;;17.05;85.38;156803.94;4975196;28;20397;-79
2022/07/03 02:19:04;;;;;;;1.92;1.40;;;;;;;17.16;84.54;156832.28;4973650;28;20137;-79
2022/07/03 02:21:30;;;;;;;3.47;1.60;;;;;;;17.08;85.18;156811.66;4978806;28;20038;-79
2022/07/03 02:24:13;;;;;;;5.45;1.50;;;;;;;16.96;86.83;156780.75;4972022;28;20073;-78
2022/07/03 02:26:42;;;;;;;5.53;1.40;;;;;;;17.01;84.51;156794.91;4977609;28;20071;-80
2022/07/03 02:29:13;;;;;;;2.90;1.30;;;;;;;17.02;86.66;156796.19;4983769;28;20038;-80
2022/07/03 02:31:48;;;;;;;1.42;1.08;;;;;;;17.05;85.11;156803.94;4973053;28;20042;-79
2022/07/03 02:34:17;;;;;;;1.40;1.20;;;;;;;16.97;85.48;156783.31;4983694;28;20475;-79
2022/07/03 02:36:47;;;;;;;2.55;1.50;;;;;;;17.09;84.23;156815.50;4964140;28;20096;-80
2022/07/03 02:39:19;;;;;;;2.40;1.10;;;;;;;17.12;84.44;156823.25;4995345;28;20042;-79
2022/07/03 02:41:50;;;;;;;1.92;1.30;;;;;;;17.14;84.80;156827.13;4972728;28;20031;-79
2022/07/03 02:44:24;;;;;;;1.27;1.17;;;;;;;17.06;85.22;156806.50;4948052;28;20030;-81
2022/07/03 02:47:21;;;;;;;1.35;1.08;;;;;;;16.91;87.52;156770.47;4968019;28;20398;-79
2022/07/03 02:49:56;;;;;;;3.90;1.42;;;;;;;16.91;86.33;156770.47;4966892;28;20074;-79
2022/07/03 02:52:42;;;;;;;2.08;1.30;;;;;;;16.82;87.09;156747.28;4973112;28;20448;-79
2022/07/03 02:55:25;;;;;;;3.97;1.50;;;;;;;16.89;85.41;156765.28;4970217;28;20046;-80
2022/07/03 02:58:16;;;;;;;2.28;1.30;;;;;;;16.81;87.31;156744.63;4985340;28;20109;-80
2022/07/03 03:00:52;;;;;;;3.85;1.65;;;;;;;16.76;87.48;156730.47;4976584;28;20409;-79
2022/07/03 03:03:26;;;;;;;2.53;1.40;;;;;;;16.77;86.66;156733.06;4980730;28;20030;-78
2022/07/03 03:05:55;;;;;;;1.85;1.13;;;;;;;16.85;86.73;156753.69;4968896;28;20105;-78
2022/07/03 03:08:38;;;;;;;1.65;1.30;;;;;;;16.71;88.77;156718.91;4982364;28;20073;-80
2022/07/03 03:11:19;;;;;;;3.33;1.50;;;;;;;16.61;89.24;156693.13;4988002;28;20042;-79
2022/07/03 03:13:50;;;;;;;2.05;1.52;;;;;;;16.44;90.13;156650.63;4993708;28;20031;-79
2022/07/03 03:16:15;;;;;;;1.45;1.35;;;;;;;16.53;89.72;156673.81;4988379;28;20136;-80
2022/07/03 03:18:41;;;;;;;3.92;1.40;;;;;;;16.58;88.13;156685.41;4965899;28;20505;-79
2022/07/03 03:21:12;;;;;;;3.47;1.30;;;;;;;16.45;89.81;156653.22;4967793;28;20066;-80
2022/07/03 03:23:50;;;;;;;2.08;1.40;;;;;;;16.47;88.93;156658.38;5005779;28;20036;-79
2022/07/03 03:26:21;;;;;;;1.42;1.20;;;;;;;16.47;88.48;156658.38;4963864;28;20089;-79
2022/07/03 03:28:48;;;;;;;1.33;1.23;;;;;;;16.51;88.61;156669.94;4999931;28;20050;-79
2022/07/03 03:31:14;;;;;;;2.30;1.40;;;;;;;16.49;89.22;156664.78;4973839;28;20444;-79
2022/07/03 03:33:44;;;;;;;2.15;1.60;;;;;;;16.49;88.91;156664.78;4983321;28;20026;-79
2022/07/03 03:36:12;;;;;;;1.92;1.27;;;;;;;16.53;88.59;156673.81;4971593;28;20045;-82
2022/07/03 03:38:39;;;;;;;4.00;1.50;;;;;;;16.48;90.77;156660.91;4971849;28;20039;-79
2022/07/03 03:41:05;;;;;;;5.68;1.50;;;;;;;16.47;90.23;156658.38;4983570;28;20050;-80
2022/07/03 03:43:31;;;;;;;2.97;1.27;;;;;;;16.36;90.93;156631.31;4948763;28;20054;-78
2022/07/03 03:45:58;;;;;;;1.02;1.02;;;;;;;16.38;91.91;156635.19;4986144;28;20106;-78
2022/07/03 03:48:24;;;;;;;1.40;1.30;;;;;;;16.34;90.18;156627.44;4972215;28;20054;-80
2022/07/03 03:50:50;;;;;;;1.40;1.30;;;;;;;16.24;92.48;156601.72;4976143;28;20049;-81
2022/07/03 03:53:17;;;;;;;2.25;1.27;;;;;;;16.05;94.84;156554.09;4979975;28;20034;-79
2022/07/03 03:56:16;;;;;;;3.70;1.50;;;;;;;16.10;92.30;156566.94;4987937;28;20085;-79
2022/07/03 03:58:43;;;;;;;3.72;1.70;;;;;;;16.09;93.17;156564.38;4964584;28;20145;-80
2022/07/03 04:01:10;;;;;;;2.42;1.35;;;;;;;16.09;92.86;156563.09;4982076;28;20042;-78
2022/07/03 04:03:37;;;;;;;1.45;1.30;;;;;;;16.12;91.88;156570.81;4981314;28;20026;-79
2022/07/03 04:06:03;;;;;;;2.53;1.30;;;;;;;16.15;91.44;156579.81;5000130;28;20042;-79
2022/07/03 04:08:30;;;;;;;2.25;1.38;;;;;;;16.20;91.17;156590.09;4987776;28;20049;-80
2022/07/03 04:10:56;;;;;;;4.72;1.50;;;;;;;16.25;91.40;156603.00;4979501;28;20058;-80
2022/07/03 04:13:22;;;;;;;5.47;1.63;;;;;;;16.31;90.43;156619.75;4970939;28;20649;-80
2022/07/03 04:15:48;;;;;;;4.40;1.48;;;;;;;16.24;90.74;156600.44;4989947;28;20077;-79
2022/07/03 04:18:14;;;;;;;2.60;1.40;;;;;;;16.21;91.78;156593.97;4956377;28;20122;-80
2022/07/03 04:20:40;;;;;;;6.63;1.85;;;;;;;16.12;92.27;156572.13;4974236;28;20048;-80
2022/07/03 04:23:06;;;;;;;1.40;1.30;;;;;;;16.26;89.98;156605.59;4953977;28;20022;-80
2022/07/03 04:25:31;;;;;;;1.88;1.60;;;;;;;16.37;90.68;156632.59;4955643;28;20487;-80
2022/07/03 04:27:57;;;;;;;2.42;1.30;;;;;;;16.32;91.62;156622.31;4985626;28;20033;-79
2022/07/03 04:30:23;;;;;;;3.30;1.42;;;;;;;16.41;90.28;156644.22;4960709;28;20042;-79
2022/07/03 04:32:49;;;;;;;1.65;1.30;;;;;;;16.43;90.71;156649.34;4970443;28;20038;-77
2022/07/03 04:35:15;;;;;;;2.60;1.50;;;;;;;16.44;91.70;156651.91;4985876;28;20524;-78
2022/07/03 04:37:41;;;;;;;2.28;1.30;;;;;;;16.54;89.58;156677.69;4985251;28;20089;-78
2022/07/03 04:40:08;;;;;;;5.82;1.40;;;;;;;16.63;89.17;156698.25;4988086;28;20035;-79
2022/07/03 04:42:33;;;;;;;4.20;1.30;;;;;;;16.77;87.47;156734.34;4986571;28;20114;-80
2022/07/03 04:44:59;;;;;;;5.88;1.63;;;;;;;16.76;88.78;156730.47;4993686;28;20133;-79
2022/07/03 04:47:25;;;;;;;2.08;1.30;;;;;;;16.78;88.15;156735.63;4974757;28;20042;-78
2022/07/03 04:49:50;;;;;;;2.25;1.33;;;;;;;16.72;89.25;156722.72;4955013;28;20066;-78
2022/07/03 04:52:17;;;;;;;5.20;1.40;;;;;;;16.78;88.34;156735.63;4996244;28;20070;-78
2022/07/03 04:54:43;;;;;;;2.33;1.55;;;;;;;16.84;88.00;156752.44;4970726;28;20118;-78
2022/07/03 04:57:08;;;;;;;3.25;1.52;;;;;;;16.96;88.52;156780.75;4976836;28;20046;-78
2022/07/03 04:59:34;;;;;;;2.08;1.67;;;;;;;16.93;88.44;156775.63;4968745;28;20038;-79
2022/07/03 05:02:00;;;;;;;2.92;1.40;;;;;;;16.84;89.44;156751.09;4975502;28;20026;-80
2022/07/03 05:04:25;;;;;;;4.10;1.50;;;;;;;16.90;87.87;156766.59;4967957;28;20050;-78
2022/07/03 05:06:51;;;;;;;3.13;1.52;;;;;;;16.99;87.80;156788.47;4968318;28;20090;-81
2022/07/03 05:09:18;;;;;;;1.60;1.40;;;;;;;17.09;87.70;156815.50;4977018;28;20038;-79
2022/07/03 05:11:45;;;;;;;2.90;1.75;;;;;;;17.16;88.47;156832.28;4969583;28;20766;-79
2022/07/03 05:14:10;;;;;;;4.35;1.55;;;;;;;17.20;88.10;156842.56;4981721;28;20383;-79
2022/07/03 05:16:36;;;;;;;3.13;1.48;;;;;;;17.09;88.73;156815.50;4960688;28;20038;-79
2022/07/03 05:19:02;;;;;;;2.72;1.30;;;;;;;17.02;92.67;156796.19;4978000;28;20038;-79
2022/07/03 05:21:28;;;;;;;2.00;1.20;;;;;;;16.80;96.62;156742.09;4969490;28;20065;-80
2022/07/03 05:23:54;;;;;;;2.22;1.60;;;;;;;16.80;95.41;156740.75;4956549;28;20035;-82
2022/07/03 05:26:19;;;;;;;1.55;1.30;;;;;;;16.86;93.32;156756.28;4947368;28;20030;-80
2022/07/03 05:28:45;;;;;;;2.55;1.60;;;;;;;16.90;93.08;156767.88;4975362;28;20429;-80
2022/07/03 05:31:10;;;;;;;4.05;1.40;;;;;;;16.89;94.45;156764.00;4967459;28;20045;-79
2022/07/03 05:33:37;;;;;;;2.53;1.48;;;;;;;16.97;95.92;156783.31;5006506;28;20059;-79
2022/07/03 05:36:03;;;;;;;3.13;1.40;;;;;;;17.09;91.98;156815.50;4992984;28;20038;-79
2022/07/03 05:41:13;;;;;;;3.80;1.42;;;;;;;17.40;88.88;156892.78;4985828;28;20510;-80
2022/07/03 05:43:39;;;;;;;2.92;1.40;;;;;;;17.39;87.50;156890.22;5004192;28;20117;-80
2022/07/03 05:46:04;;;;;;;1.83;1.40;;;;;;;17.34;90.34;156877.34;4971146;28;20039;-81
2022/07/03 05:48:30;;;;;;;3.22;1.48;;;;;;;17.49;88.34;156914.69;4982521;28;20069;-81
2022/07/03 05:50:56;;;;;;;2.58;1.58;;;;;;;17.72;87.67;156972.66;4964722;28;20046;-80
2022/07/03 05:53:22;;;;;;;7.60;1.52;;;;;;;17.94;86.07;157028.13;4990361;28;20034;-81
2022/07/03 05:55:48;;;;;;;2.58;1.40;;;;;;;17.98;87.03;157037.16;4973734;28;20042;-79
2022/07/03 05:58:13;;;;;;;3.45;1.30;;;;;;;18.04;86.20;157052.63;4970319;28;20045;-79
2022/07/03 06:00:39;;;;;;;2.60;1.33;;;;;;;18.31;84.82;157120.94;4973020;28;20066;-78
2022/07/03 06:03:05;;;;;;;2.95;1.50;;;;;;;18.43;83.25;157150.56;4965580;28;20058;-80
2022/07/03 06:05:32;;;;;;;3.83;1.50;;;;;;;18.66;84.25;157208.56;4958361;28;20039;-79
2022/07/03 06:07:58;;;;;;;1.73;1.20;;;;;;;18.79;82.74;157242.09;4973748;28;20045;-78
2022/07/03 06:10:24;;;;;;;3.67;1.60;;;;;;;18.79;80.40;157240.81;4956470;28;20038;-78
2022/07/03 06:12:49;;;;;;;2.13;1.58;;;;;;;18.82;83.77;157249.88;4954854;28;20034;-78
2022/07/03 06:15:15;;;;;;;3.33;1.33;;;;;;;18.94;81.46;157278.25;4970308;28;20042;-79
2022/07/03 06:17:40;;;;;;;5.28;1.50;;;;;;;19.02;82.33;157300.19;4972535;28;20042;-79
2022/07/03 06:20:06;;;;;;;1.40;1.27;;;;;;;19.07;81.46;157311.78;4966799;28;20117;-79
2022/07/03 06:22:33;;;;;;;2.42;1.33;;;;;;;19.13;82.03;157325.97;4993615;28;20046;-79
2022/07/03 06:24:59;;;;;;;2.83;1.40;;;;;;;19.31;80.15;157371.06;4987463;28;20035;-78
2022/07/03 06:27:25;;;;;;;5.25;1.52;;;;;;;19.40;80.68;157395.59;4977936;28;20048;-79
2022/07/03 06:29:51;;;;;;;3.55;1.50;;;;;;;19.61;81.14;157447.19;4951445;28;20424;-80
2022/07/03 06:32:17;;;;;;;4.35;1.48;;;;;;;19.67;79.50;157461.38;4971119;28;20043;-78
2022/07/03 06:34:43;;;;;;;1.88;1.48;;;;;;;19.73;79.04;157476.91;4985883;28;20037;-81
2022/07/03 06:37:09;;;;;;;3.63;1.25;;;;;;;19.89;78.24;157518.19;4980875;28;20046;-79
2022/07/03 06:39:35;;;;;;;4.35;1.45;;;;;;;19.97;78.21;157537.53;5004433;28;20096;-78
2022/07/03 06:42:01;;;;;;;3.70;1.42;;;;;;;20.07;78.66;157562.03;4977329;28;20034;-79
2022/07/03 06:44:26;;;;;;;1.63;1.30;;;;;;;20.13;78.03;157578.78;4983300;28;20121;-78
2022/07/03 06:46:52;;;;;;;5.90;1.50;;;;;;;20.27;78.43;157613.66;4994390;28;20513;-79
2022/07/03 06:49:18;;;;;;;5.25;1.40;;;;;;;20.31;78.97;157623.97;4971759;28;20034;-82
2022/07/03 06:51:44;;;;;;;1.63;1.30;;;;;;;20.45;77.76;157658.78;4973339;28;20038;-79
2022/07/03 06:54:09;;;;;;;3.95;1.30;;;;;;;20.49;78.44;157669.09;4969112;28;20037;-79
2022/07/03 06:56:35;;;;;;;2.30;1.50;;;;;;;20.58;77.69;157692.34;4971321;28;20627;-80
2022/07/03 06:59:00;;;;;;;2.10;1.30;;;;;;;20.55;76.70;157684.63;4991738;28;20116;-79
2022/07/03 07:01:26;;;;;;;2.28;1.30;;;;;;;20.68;76.99;157716.94;4973572;28;20066;-80
2022/07/03 07:03:51;;;;;;;1.92;1.10;;;;;;;20.79;76.39;157744.03;4955855;28;20031;-79
2022/07/03 07:06:17;;;;;;;3.08;1.10;;;;;;;20.97;74.30;157789.22;4968756;28;20046;-79
2022/07/03 07:08:43;;;;;;;1.88;1.40;;;;;;;20.93;76.48;157780.16;4975180;28;20034;-80
2022/07/03 07:11:08;;;;;;;1.98;1.23;;;;;;;21.07;76.09;157813.72;4956507;28;20042;-82
2022/07/03 07:13:34;;;;;;;3.05;1.30;;;;;;;21.37;73.67;157891.16;4986627;28;20034;-81
2022/07/03 07:16:00;;;;;;;3.78;1.23;;;;;;;21.45;73.35;157910.56;4955616;28;20053;-80
2022/07/03 07:18:26;;;;;;;2.40;1.20;;;;;;;21.56;72.65;157937.69;4972043;28;20498;-78
2022/07/03 07:20:52;;;;;;;1.67;1.10;;;;;;;21.66;74.12;157962.22;4971449;28;20045;-80
2022/07/03 07:23:17;;;;;;;4.65;1.20;;;;;;;21.83;72.96;158004.84;4975159;28;20084;-80
2022/07/03 07:25:43;;;;;;;7.13;1.23;;;;;;;21.74;70.01;157984.19;4979145;28;20510;-79
2022/07/03 07:28:08;;;;;;;2.13;1.20;;;;;;;21.83;72.69;158006.16;4967149;28;20437;-80
2022/07/03 07:30:34;;;;;;;2.72;1.25;;;;;;;22.11;71.40;158075.88;5003172;28;20077;-79
2022/07/03 07:32:59;;;;;;;1.90;1.13;;;;;;;22.14;70.03;158084.91;5000925;28;20027;-81
2022/07/03 07:35:25;;;;;;;1.77;1.00;;;;;;;22.38;71.59;158144.41;4984864;28;20818;-79
2022/07/03 07:37:50;;;;;;;1.50;1.13;;;;;;;22.50;69.54;158174.09;4957630;28;20112;-79
2022/07/03 07:40:16;;;;;;;3.65;1.23;;;;;;;22.50;69.48;158174.09;4960970;28;20535;-79
2022/07/03 07:42:42;;;;;;;3.78;1.20;;;;;;;22.69;68.23;158223.16;4983811;28;20019;-78
2022/07/03 07:45:09;;;;;;;4.47;1.20;;;;;;;22.75;68.23;158237.38;4965094;28;20663;-78
2022/07/03 07:47:35;;;;;;;1.77;1.20;;;;;;;22.94;66.97;158285.19;4996341;28;20081;-79
2022/07/03 07:50:01;;;;;;;4.65;1.48;;;;;;;22.80;66.24;158249.03;4978882;28;20070;-79
2022/07/03 07:52:26;;;;;;;4.18;1.10;;;;;;;22.86;70.43;158265.81;4981270;28;20031;-80
2022/07/03 07:54:52;;;;;;;2.70;1.10;;;;;;;23.07;69.85;158317.53;4985381;28;20061;-81
2022/07/03 07:57:17;;;;;;;6.75;1.00;;;;;;;23.22;65.14;158356.28;4951932;28;20042;-77
2022/07/03 07:59:43;;;;;;;3.10;1.20;;;;;;;23.23;66.94;158357.63;4969321;28;20065;-78
2022/07/03 08:07:37;;;;;;;1.05;0.85;;;;;;;23.55;62.81;158439.03;4963396;28;20133;-79
2022/07/03 08:10:03;;;;;;;10.43;1.42;;;;;;;23.68;63.07;158471.34;5012746;23;20084;-78
2022/07/03 08:12:28;;;;;;;2.20;1.05;;;;;;;23.85;64.54;158514.06;5007836;28;20057;-78
2022/07/03 08:14:54;;;;;;;2.80;1.02;;;;;;;23.98;66.23;158547.66;5003454;28;20416;-77
2022/07/03 08:17:20;;;;;;;3.08;1.40;;;;;;;23.86;59.92;158517.91;5008942;28;20230;-77
2022/07/03 08:19:46;;;;;;;1.30;0.85;;;;;;;23.77;61.23;158494.63;4993890;28;20038;-78
2022/07/03 08:22:11;;;;;;;4.25;1.10;;;;;;;23.89;57.95;158525.66;4977579;28;20092;-78
2022/07/03 08:24:37;;;;;;;4.57;1.10;;;;;;;23.99;58.71;158550.22;5003817;28;20046;-75
2022/07/03 08:27:05;;;;;;;2.30;1.00;;;;;;;24.01;59.56;158555.38;4996758;28;20043;-75
2022/07/03 08:29:31;;;;;;;7.57;1.58;;;;;;;24.14;59.55;158586.44;4993461;28;20482;-77
2022/07/03 08:31:57;;;;;;;4.22;1.27;;;;;;;24.40;54.35;158652.38;5009242;28;20567;-76
2022/07/03 08:34:23;;;;;;;3.50;1.25;;;;;;;24.57;60.24;158695.09;4982364;28;20034;-76
2022/07/03 08:36:48;;;;;;;2.03;1.15;;;;;;;24.73;63.87;158736.44;4999170;28;20400;-76
2022/07/03 08:39:14;;;;;;;5.80;1.25;;;;;;;25.05;57.73;158816.63;4996281;28;20058;-77
2022/07/03 08:41:40;;;;;;;1.60;0.90;;;;;;;25.27;55.98;158871.03;5004997;28;20077;-78
2022/07/03 08:44:09;;;;;;;4.05;1.02;;;;;;;25.44;55.44;158916.28;4979571;28;20460;-75
2022/07/03 08:46:34;;;;;;;3.30;1.13;;;;;;;25.27;55.19;158871.03;4979791;28;20076;-78
2022/07/03 08:49:01;;;;;;;1.85;1.00;;;;;;;25.15;53.40;158842.53;4996936;28;20128;-76
2022/07/03 08:51:27;;;;;;;2.10;1.15;;;;;;;25.26;52.89;158869.75;4979946;28;20035;-76
2022/07/03 08:53:56;;;;;;;2.53;1.08;;;;;;;25.35;57.70;158891.72;4998414;28;20061;-76
2022/07/03 08:56:23;;;;;;;0.80;0.70;;;;;;;25.61;56.90;158958.97;5002018;28;20088;-77
2022/07/03 08:58:49;;;;;;;1.75;0.80;;;;;;;25.73;55.42;158988.78;5000048;28;20114;-76
2022/07/03 09:01:17;;;;;;;2.75;1.20;;;;;;;25.99;62.88;159053.47;5008251;28;20120;-78
2022/07/03 09:03:43;;;;;;;1.70;1.00;;;;;;;25.87;57.79;159022.41;4999103;28;20100;-76
2022/07/03 09:06:08;;;;;;;1.58;0.88;;;;;;;25.99;49.07;159053.47;5005646;28;20463;-75
2022/07/03 09:08:36;;;;;;;1.73;0.90;;;;;;;25.73;51.08;158987.44;5016003;28;20037;-75
2022/07/03 09:11:03;;;;;;;2.95;0.90;;;;;;;25.62;53.81;158961.59;5008337;28;20050;-75
2022/07/03 09:13:29;;;;;;;2.83;0.93;;;;;;;25.49;52.50;158926.69;5010553;28;20136;-76
2022/07/03 09:15:55;;;;;;;1.85;0.80;;;;;;;25.63;53.43;158964.16;4996520;28;20544;-77
2022/07/03 09:18:38;;;;;;;2.72;0.90;;;;;;;25.38;52.27;158899.50;4999931;28;20496;-75
2022/07/03 09:21:04;;;;;;;1.35;0.80;;;;;;;25.19;57.46;158852.88;4999542;28;20034;-76
2022/07/03 09:23:37;;;;;;;1.52;0.75;;;;;;;25.02;61.96;158810.19;5018482;28;20029;-76
2022/07/03 09:26:03;;;;;;;3.60;0.85;;;;;;;24.82;69.95;158758.44;5021074;28;20040;-77
2022/07/03 09:28:52;;;;;;;4.63;0.93;;;;;;;25.06;60.64;158820.53;4998810;28;20148;-78
2022/07/03 09:31:26;;;;;;;3.38;0.90;;;;;;;24.99;61.16;158801.13;4981782;28;20122;-76
2022/07/03 09:33:54;;;;;;;4.88;0.80;;;;;;;25.06;55.68;158819.25;5011396;28;20048;-77
2022/07/03 09:36:41;;;;;;;3.17;0.80;;;;;;;25.05;61.08;158816.63;5000735;28;20635;-76
2022/07/03 09:39:17;;;;;;;2.30;1.00;;;;;;;25.15;59.63;158842.53;4974438;28;20404;-76
2022/07/03 09:42:04;;;;;;;4.05;0.93;;;;;;;25.29;53.32;158877.47;5005242;28;20061;-78
2022/07/03 09:44:36;;;;;;;6.50;0.85;;;;;;;25.27;57.21;158872.31;4987273;28;20035;-75
2022/07/03 09:47:12;;;;;;;1.30;0.85;;;;;;;25.77;59.44;158997.84;4989750;28;20064;-78
2022/07/03 09:49:48;;;;;;;2.35;0.70;;;;;;;25.73;53.97;158987.44;4987360;28;20049;-78
2022/07/03 09:52:37;;;;;;;2.08;0.70;;;;;;;25.66;53.75;158970.66;5005798;28;20512;-76
2022/07/03 09:55:08;;;;;;;4.03;0.98;;;;;;;25.76;61.78;158996.50;5019571;28;20073;-77
2022/07/03 09:57:38;;;;;;;3.72;0.80;;;;;;;26.02;54.05;159062.53;4994422;28;20042;-76
2022/07/03 10:00:23;;;;;;;1.60;0.80;;;;;;;25.89;55.60;159027.56;5006287;28;20468;-76
2022/07/03 10:03:03;;;;;;;2.17;0.80;;;;;;;25.39;54.16;158903.38;4982240;28;20034;-76
2022/07/03 10:05:37;;;;;;;1.80;0.80;;;;;;;25.02;58.49;158808.91;5013474;28;20056;-76
2022/07/03 10:08:07;;;;;;;3.22;0.90;;;;;;;24.70;61.78;158728.72;5002923;28;20042;-76
2022/07/03 10:10:38;;;;;;;2.30;1.00;;;;;;;24.61;62.46;158705.44;5003643;28;20049;-77
2022/07/03 10:13:05;;;;;;;4.67;1.07;;;;;;;24.65;58.95;158715.78;5010647;28;20036;-76
2022/07/03 10:15:32;;;;;;;3.00;0.98;;;;;;;25.11;57.36;158832.19;5035180;28;20037;-76
2022/07/03 10:17:59;;;;;;;3.95;1.30;;;;;;;25.91;57.74;159032.75;5012096;28;20056;-77
2022/07/03 10:20:27;;;;;;;7.35;0.90;;;;;;;26.34;56.09;159142.78;4987318;28;20045;-77
2022/07/03 10:22:54;;;;;;;4.15;0.77;;;;;;;26.61;52.01;159211.41;5000712;28;20034;-77
2022/07/03 10:25:20;;;;;;;5.25;1.20;;;;;;;26.80;50.82;159259.34;4984676;28;20121;-76
2022/07/03 10:27:47;;;;;;;5.97;0.90;;;;;;;26.87;49.63;159276.16;4982862;28;20036;-77
2022/07/03 10:30:17;;;;;;;3.78;1.00;;;;;;;26.76;49.15;159247.66;5005733;28;20045;-78
2022/07/03 10:32:48;;;;;;;2.80;0.80;;;;;;;26.72;47.41;159238.59;4988117;28;20617;-78
2022/07/03 10:35:25;;;;;;;2.83;0.85;;;;;;;26.89;51.51;159281.31;5001625;28;20041;-76
2022/07/03 10:38:02;;;;;;;1.40;0.80;;;;;;;26.91;51.86;159286.50;5024084;28;20042;-74
2022/07/03 10:46:28;;;;;;;4.47;1.35;;;;;;;27.33;45.32;159391.41;5004116;28;20042;-77
2022/07/03 10:49:06;;;;;;;2.97;0.75;;;;;;;27.42;46.35;159413.44;4983713;28;20042;-77
2022/07/03 10:51:52;;;;;;;2.47;1.10;;;;;;;27.36;45.16;159399.19;5005635;28;20034;-78
2022/07/03 10:54:20;;;;;;;3.90;1.02;;;;;;;27.57;45.31;159452.28;5009388;28;20507;-75
2022/07/03 10:56:58;;;;;;;3.20;0.85;;;;;;;27.62;43.50;159465.25;5004699;28;20041;-77
2022/07/03 10:59:36;;;;;;;8.05;1.05;;;;;;;27.72;46.11;159489.84;5007421;28;20427;-76
2022/07/03 11:02:20;;;;;;;3.50;0.82;;;;;;;27.40;43.04;159409.53;4982392;28;20116;-75
2022/07/03 11:05:01;;;;;;;2.17;0.85;;;;;;;27.35;42.27;159397.91;5006809;28;20153;-77
2022/07/03 11:07:27;;;;;;;2.67;0.90;;;;;;;26.89;45.24;159281.31;4969166;28;20050;-77
2022/07/03 11:10:05;;;;;;;2.13;0.82;;;;;;;27.24;46.56;159368.03;5009855;28;20056;-76
2022/07/03 11:12:55;;;;;;;2.00;0.80;;;;;;;27.56;50.45;159451.00;5005360;28;20073;-76
2022/07/03 11:15:36;;;;;;;1.83;0.70;;;;;;;27.73;43.84;159492.44;5007627;28;20507;-77
2022/07/03 11:18:14;;;;;;;1.67;0.75;;;;;;;27.92;44.47;159541.69;4994047;28;20065;-76
2022/07/03 11:20:39;;;;;;;3.63;0.65;;;;;;;28.34;41.36;159646.59;4993124;28;20380;-76
2022/07/03 11:23:11;;;;;;;2.55;0.80;;;;;;;28.43;43.84;159669.91;4986470;28;20026;-77
2022/07/03 11:25:44;;;;;;;5.32;0.70;;;;;;;28.43;43.99;159669.91;4982466;28;20049;-78
2022/07/03 11:28:52;;;;;;;5.53;0.80;;;;;;;28.60;42.52;159712.72;4998602;28;20029;-76
2022/07/03 11:31:21;;;;;;;3.08;0.80;;;;;;;28.72;42.48;159743.78;4951675;28;20030;-77
2022/07/03 11:33:55;;;;;;;2.40;0.82;;;;;;;28.24;44.98;159620.72;4934621;28;20113;-76
2022/07/03 11:36:32;;;;;;;3.75;0.98;;;;;;;28.03;42.28;159567.56;4958087;28;20496;-76
2022/07/03 11:38:58;;;;;;;3.15;0.88;;;;;;;27.92;44.25;159541.69;4996730;28;20070;-76
2022/07/03 11:41:42;;;;;;;2.20;0.80;;;;;;;28.41;46.12;159663.47;4996717;28;20068;-76
2022/07/03 11:44:14;;;;;;;7.13;1.13;;;;;;;28.15;42.40;159598.69;4991928;28;20033;-76
2022/07/03 11:46:40;;;;;;;1.73;0.80;;;;;;;27.96;44.02;159552.03;4991112;28;20045;-77
2022/07/03 11:49:06;;;;;;;2.30;0.93;;;;;;;28.32;42.05;159641.44;4994544;28;20401;-76